Cecil Field, FL

3:04 AM EST on February 19, 2018 (GMT -0500)
Cecil | | Change Station
Active Advisory: Dense Fog Advisory

Elev 79 ft 30.22 °N, 81.88 °W | Updated 9 minutes ago

Fog
Fog
63 °F
Feels Like 63 °F
N
0
Wind Variable Wind from North

Today
High -- | Low -- °F
--% Chance of Precip.
Yesterday
High -- | Low -- °F
Precip. -- in
Pressure 30.28 in
Visibility 0.2 miles
Clouds Overcast 200 ft
Dew Point 63 °F
Humidity 100%
Rainfall 0.00 in
Snow Depth Not available.
7:03 AM 6:19 PM
Waxing Crescent, 12% visible
METAR KVQQ 190755Z AUTO 00000KT 1/4SM FG OVC002 17/17 A3028 RMK AO2
Pressure 30.28 in
Visibility 0.2 miles
Clouds Overcast 200 ft
Dew Point 63 °F
Humidity 100%
Rainfall 0.00 in
Snow Depth Not available.
7:03 AM 6:19 PM
Waxing Crescent, 12% visible
METAR KVQQ 190755Z AUTO 00000KT 1/4SM FG OVC002 17/17 A3028 RMK AO2

Get Your Daily Forecast Email!

Thanks for signing up!

Be on the lookout for a verification email in your inbox.

You'll start receiving severe weather alerts in your inbox..

×

10-Day Weather Forecast

Almanac

Astronomy

Feb. 19, 2018 Rise Set
Actual Time
Civil Twilight
Nautical Twilight
Astronomical Twilight
Moon
Length of Visible Light
Length of Day
Tomorrow will be .
, % of the Moon is Illuminated

Today's Extremes

State Highs State Lows

Community

WunderPhotos

Category 6

Welcome to Category 6. This is the collective home for Weather Underground's featured writeups by Dr. Jeff Masters (right), Bob Henson (left), Chris Burt, and other regular contributors.

Nearby

Air Quality

  Air Quality AQ Index Pollutant
Not available.

Snow Depth

Station Depth Elevation

Earthquake Activity

City Distance Mag. Time & Date
Minimum magnitude displayed is 2.5.

Coastal Water Temperatures

Place Temperature

Stations

Nearby Weather Stations

Station Location Temp. Windchill Dew Point Humidity Wind Precip. Elev Updated Type
                   

Watches & Warnings

Dense Fog Advisory
Issued: 2:08 AM EST Feb. 19, 2018 – National Weather Service

... Dense fog advisory remains in effect until 10 am EST this
morning...

* visibility... one quarter mile or less.

* Impacts... reduced visibility will result in difficult driving
conditions.

Precautionary/preparedness actions...

A dense fog advisory means visibilities will frequently be
reduced to one quarter mile or less. If driving, slow down, use
your low beam headlights, and leave plenty of distance ahead of
you.